Tuesday, January 23, 2018, 7:15 AM EST
Back to Local

KMMU, Morristown Municipal

Location: Morristown, NJ, United States Lat: 40.8
Local Time: 7:15 AM EST (12:15 GMT) Lon: -74.417
Time Zone: US/Eastern Elev: 187 ft

Show me the last for .
Show Coded

Time T Td Feel RH Dir Speed Gust Alt SLP Vis Weather Sky Remarks
2018-01-23 06:45 39 39 - 100 - Calm - 29.80 - 2 RA OVC005 None
2018-01-23 06:35 39 39 - 100 - Calm - 29.80 - 2 +RA OVC003 1-hr Precip Total: 0.21"
2018-01-23 06:15 39 39 36 100 30° 5 - 29.80 - 1 RA OVC003 1-hr Precip Total: 0.13"
2018-01-23 05:55 39 39 37 100 20° 3 - 29.82 - 0 VCTSSN -OVC003 1-hr Precip Total: 0.03"
2018-01-23 05:35 39 39 - 100 - Calm - 29.83 - 0 RA OVC003 None
2018-01-23 05:15 39 39 37 100 10° 3 - 29.85 - 0 FG OVC003 None
2018-01-23 04:55 39 39 37 100 10° 3 - 29.87 - 0 FG OVC003 None
2018-01-23 04:35 39 39 - 100 - Calm - 29.88 - 0 FG OVC003 None
2018-01-23 04:15 39 39 - 100 - Calm - 29.90 - 0 BR OVC003 None
2018-01-23 03:55 39 39 - 100 - Calm - 29.91 - 1 BR OVC003 None
2018-01-23 03:35 39 39 36 100 30° 5 - 29.91 - 0 BR OVC003 None
2018-01-23 03:15 39 39 37 100 40° 3 - 29.93 - 1 BR OVC003 None
2018-01-23 02:55 39 39 - 100 - Calm - 29.95 - 1 BR OVC003 None
2018-01-23 02:35 39 39 - 100 - Calm - 29.96 - 1 BR OVC003 None
2018-01-23 02:15 39 39 37 100 340° 3 - 29.98 - 0 BR OVC003 None
2018-01-23 01:55 37 37 35 100 50° 3 - 29.97 - 0 FG OVC003 None
2018-01-23 01:35 39 39 - 100 - Calm - 29.99 - 0 FG OVC003 None
2018-01-23 01:15 37 37 34 100 40° 5 - 29.99 - 0 FG OVC003 None
2018-01-23 00:55 37 37 35 100 40° 3 - 30.00 - 0 FG OVC003 None
2018-01-23 00:35 37 37 34 100 30° 5 - 30.02 - 0 FG OVC003 None
2018-01-23 00:15 39 39 36 100 40° 5 - 30.04 - 0 FG OVC003 None
2018-01-22 23:55 39 39 37 100 50° 3 - 30.05 - 0 BR OVC003 None
2018-01-22 23:35 39 39 35 100 50° 6 - 30.07 - 0 FG OVC003 None
2018-01-22 23:15 39 39 36 100 40° 5 - 30.08 - 1 BR OVC003 None
2018-01-22 22:55 39 39 37 100 40° 3 - 30.08 - 2 BR OVC003 None
2018-01-22 22:35 39 39 37 100 40° 3 - 30.08 - 2 BR OVC005 None
2018-01-22 22:15 39 39 37 100 60° 3 - 30.08 - 3 BR OVC005 None
2018-01-22 21:45 41 39 38 93 40° 5 - 30.09 - 3 BR OVC005 None
2018-01-22 20:45 41 39 38 93 40° 5 - 30.11 - 3 BR OVC006 None
2018-01-22 19:45 41 39 38 93 80° 5 - 30.13 - 3 BR OVC007 None
2018-01-22 18:45 41 39 36 93 80° 8 - 30.14 - 2 BR BKN009 OVC120 None
2018-01-22 18:22 41 39 36 93 80° 8 - 30.14 - 3 BR BKN009 OVC120 None
2018-01-22 17:45 43 39 38 86 80° 8 - 30.14 - 5 HZ BKN030 OVC100 None
2018-01-22 16:45 46 39 44 75 110° 6 - 30.13 - 5 HZ SCT070 BKN085 OVC100 None
2018-01-22 15:45 48 39 45 70 120° 8 - 30.12 - 5 HZ SCT070 BKN085 OVC100 None
2018-01-22 14:45 50 39 48 66 110° 5 - 30.11 - 7 BKN050 OVC065 None
2018-01-22 13:45 50 39 48 66 60° 5 - 30.13 - 7 SCT043 OVC250 None
2018-01-22 12:45 48 39 - 70 - Calm - 30.15 - 7 SCT043 OVC250 None
2018-01-22 11:45 46 39 - 75 - Calm - 30.17 - 7 BKN060 None
2018-01-22 10:45 45 39 43 81 50° 3 - 30.20 - 7 BKN070 None
2018-01-22 09:45 43 39 - 86 - Calm - 30.20 - 7 BR SCT033 OVC100 None
2018-01-22 08:45 39 39 - 100 - Calm - 30.19 - 6 BR OVC090 None
2018-01-22 07:45 37 37 - 100 - Calm - 30.17 - 6 BR SCT065 OVC090 None

Support USWX by starting your Amazon purchase here.